createdAt,value
2022-12-13T00:00:57.240Z,26.83
2022-12-13T00:03:23.849Z,26.90
2022-12-13T00:05:50.457Z,20.63
2022-12-13T00:08:17.324Z,20.52
2022-12-13T00:10:43.949Z,19.65
2022-12-13T00:13:10.523Z,19.20
2022-12-13T00:15:37.097Z,23.15
2022-12-13T00:18:03.795Z,21.52
2022-12-13T00:20:30.373Z,22.02
2022-12-13T00:22:57.421Z,22.38
2022-12-13T00:25:24.056Z,22.40
2022-12-13T00:27:50.645Z,22.75
2022-12-13T00:30:17.252Z,20.17
2022-12-13T00:32:43.812Z,19.08
2022-12-13T00:35:10.407Z,16.70
2022-12-13T00:37:37.001Z,28.63
2022-12-13T00:40:04.153Z,19.75
2022-12-13T00:42:30.875Z,21.88
2022-12-13T00:44:57.474Z,22.40
2022-12-13T00:47:26.316Z,21.42
2022-12-13T00:49:52.885Z,22.42
2022-12-13T00:52:20.249Z,20.85
2022-12-13T00:54:47.103Z,22.45
2022-12-13T00:57:13.705Z,20.05
2022-12-13T00:59:40.306Z,19.75
2022-12-13T01:02:06.881Z,20.25
2022-12-13T01:04:33.576Z,22.63
2022-12-13T01:07:00.278Z,21.50
2022-12-13T01:09:29.631Z,16.52
2022-12-13T01:11:58.673Z,17.05
2022-12-13T01:14:26.064Z,23.33
2022-12-13T01:16:55.705Z,20.08
2022-12-13T01:19:23.699Z,15.98
2022-12-13T01:21:54.185Z,18.27
2022-12-13T01:24:22.800Z,17.75
2022-12-13T01:26:49.426Z,19.08
2022-12-13T01:29:16.508Z,18.20
2022-12-13T01:31:43.081Z,16.67
2022-12-13T01:34:13.946Z,19.10
2022-12-13T01:36:42.412Z,19.67
2022-12-13T01:39:15.089Z,19.40
2022-12-13T01:41:59.255Z,19.25
2022-12-13T01:44:59.989Z,20.17
2022-12-13T01:47:45.291Z,19.38
2022-12-13T01:50:17.776Z,14.45
2022-12-13T01:52:45.754Z,18.77
2022-12-13T01:55:13.604Z,20.15
2022-12-13T01:57:45.713Z,17.33
2022-12-13T02:00:13.740Z,20.90
2022-12-13T02:02:40.902Z,22.98
2022-12-13T02:05:14.297Z,21.75
2022-12-13T02:07:43.049Z,21.98
2022-12-13T02:10:10.595Z,20.02
2022-12-13T02:12:38.105Z,21.88
2022-12-13T02:15:14.704Z,21.65
2022-12-13T02:18:01.944Z,19.23
2022-12-13T02:20:40.287Z,18.23
2022-12-13T02:23:31.989Z,19.58
2022-12-13T02:26:25.707Z,20.70
2022-12-13T02:29:30.086Z,16.50
2022-12-13T02:32:12.876Z,19.13
2022-12-13T02:35:01.786Z,21.13
2022-12-13T02:37:44.641Z,19.50
2022-12-13T02:40:38.091Z,16.30
2022-12-13T02:43:18.355Z,20.27
2022-12-13T02:45:51.416Z,15.57
2022-12-13T02:48:25.136Z,19.48
2022-12-13T02:50:53.615Z,19.15
2022-12-13T02:53:22.506Z,19.75
2022-12-13T02:55:49.165Z,20.20
2022-12-13T02:58:30.345Z,16.02
2022-12-13T03:01:28.950Z,21.48
2022-12-13T03:04:34.958Z,20.27
2022-12-13T03:07:12.237Z,23.30
2022-12-13T03:09:50.843Z,16.48
2022-12-13T03:12:53.001Z,16.17
2022-12-13T03:15:30.336Z,24.60
2022-12-13T03:18:04.957Z,14.98
2022-12-13T03:20:31.896Z,15.30
2022-12-13T03:22:59.253Z,18.85
2022-12-13T03:25:31.253Z,20.25
2022-12-13T03:28:02.016Z,20.25
2022-12-13T03:30:30.829Z,16.38
2022-12-13T03:32:57.414Z,22.23
2022-12-13T03:35:25.144Z,19.02
2022-12-13T03:38:02.172Z,15.93
2022-12-13T03:40:30.228Z,19.38
2022-12-13T03:42:57.052Z,19.48
2022-12-13T03:45:24.088Z,16.77
2022-12-13T03:47:50.675Z,16.17
2022-12-13T03:50:26.826Z,16.35
2022-12-13T03:53:01.272Z,18.25
2022-12-13T03:55:28.368Z,19.90
2022-12-13T03:57:54.943Z,24.55
2022-12-13T04:00:22.117Z,19.60
2022-12-13T04:02:48.785Z,19.63
2022-12-13T04:05:15.930Z,21.55
2022-12-13T04:07:48.014Z,21.92
2022-12-13T04:10:25.362Z,21.33
2022-12-13T04:13:12.243Z,19.33
2022-12-13T04:15:39.429Z,18.73
2022-12-13T04:18:06.061Z,19.55
2022-12-13T04:20:32.604Z,19.70
2022-12-13T04:22:59.220Z,15.77
2022-12-13T04:25:26.450Z,15.63
2022-12-13T04:27:53.091Z,18.55
2022-12-13T04:30:19.738Z,17.52
2022-12-13T04:32:46.331Z,19.55
2022-12-13T04:35:13.009Z,22.00
2022-12-13T04:37:39.740Z,18.65
2022-12-13T04:40:10.689Z,15.45
2022-12-13T04:42:37.739Z,16.50
2022-12-13T04:45:04.860Z,19.42
2022-12-13T04:47:31.490Z,17.20
2022-12-13T04:49:58.141Z,18.77
2022-12-13T04:52:24.759Z,15.95
2022-12-13T04:54:55.672Z,17.10
2022-12-13T04:57:23.262Z,15.00
2022-12-13T04:59:50.034Z,18.33
2022-12-13T05:02:23.107Z,16.25
2022-12-13T05:04:54.159Z,20.15
2022-12-13T05:07:21.609Z,19.77
2022-12-13T05:09:48.298Z,18.80
2022-12-13T05:12:22.408Z,21.02
2022-12-13T05:14:50.795Z,19.77
2022-12-13T05:17:17.456Z,20.63
2022-12-13T05:19:44.179Z,19.23
2022-12-13T05:22:19.837Z,21.00
2022-12-13T05:24:47.910Z,22.40
2022-12-13T05:27:24.508Z,20.17
2022-12-13T05:30:04.485Z,24.33
2022-12-13T05:32:43.543Z,19.70
2022-12-13T05:35:13.642Z,19.83
2022-12-13T05:37:40.656Z,20.63
2022-12-13T05:40:08.241Z,22.27
2022-12-13T05:42:36.282Z,19.52
2022-12-13T05:45:03.009Z,17.40
2022-12-13T05:47:29.573Z,15.60
2022-12-13T05:49:56.208Z,17.10
2022-12-13T05:52:30.589Z,15.70
2022-12-13T05:55:12.797Z,16.70
2022-12-13T05:57:39.388Z,17.17
2022-12-13T06:00:29.918Z,15.98
2022-12-13T06:02:55.478Z,18.75
2022-12-13T06:05:22.241Z,17.08
2022-12-13T06:07:52.203Z,22.33
2022-12-13T06:10:23.403Z,13.95
2022-12-13T06:12:50.171Z,17.13
2022-12-13T06:15:22.708Z,20.60
2022-12-13T06:17:49.737Z,15.57
2022-12-13T06:20:23.615Z,20.08
2022-12-13T06:22:54.129Z,18.88
2022-12-13T06:25:30.935Z,15.10
2022-12-13T06:28:00.820Z,17.35
2022-12-13T06:30:29.091Z,16.58
2022-12-13T06:32:55.937Z,17.17
2022-12-13T06:35:28.190Z,18.42
2022-12-13T06:38:01.413Z,16.83
2022-12-13T06:42:58.552Z,18.67
2022-12-13T06:45:25.882Z,19.73
2022-12-13T06:47:52.509Z,20.45
2022-12-13T06:50:19.340Z,20.58
2022-12-13T06:52:47.079Z,23.90
2022-12-13T06:55:14.563Z,18.05
2022-12-13T06:57:41.702Z,17.67
2022-12-13T07:00:10.280Z,18.40
2022-12-13T07:02:38.477Z,19.23
2022-12-13T07:05:05.682Z,20.88
2022-12-13T07:07:32.330Z,16.27
2022-12-13T07:09:58.908Z,18.30
2022-12-13T07:12:25.589Z,19.67
2022-12-13T07:14:52.444Z,23.17
2022-12-13T07:17:33.811Z,20.25
2022-12-13T07:22:38.793Z,19.38
2022-12-13T07:25:28.692Z,18.70
2022-12-13T07:28:01.568Z,22.20
2022-12-13T07:30:33.668Z,15.82
2022-12-13T07:33:04.891Z,22.83
2022-12-13T07:35:32.398Z,21.83
2022-12-13T07:38:04.688Z,18.08
2022-12-13T07:40:34.664Z,21.58
2022-12-13T07:43:01.269Z,20.80
2022-12-13T07:45:27.836Z,22.48
2022-12-13T07:47:54.506Z,17.55
2022-12-13T07:50:24.831Z,21.23
2022-12-13T07:52:53.373Z,19.80
2022-12-13T07:55:23.241Z,25.25
2022-12-13T07:58:08.470Z,19.23
2022-12-13T08:00:35.728Z,20.70
2022-12-13T08:03:02.523Z,20.27
2022-12-13T08:05:29.272Z,24.27
2022-12-13T08:08:07.648Z,18.88
2022-12-13T08:10:34.363Z,15.93
2022-12-13T08:13:04.650Z,20.42
2022-12-13T08:15:31.767Z,21.50
2022-12-13T08:18:00.800Z,18.20
2022-12-13T08:20:27.873Z,19.63
2022-12-13T08:23:01.951Z,17.27
2022-12-13T08:25:30.446Z,19.27
2022-12-13T08:28:01.687Z,20.13
2022-12-13T08:30:30.099Z,18.02
2022-12-13T08:32:57.534Z,19.38
2022-12-13T08:35:33.477Z,17.40
2022-12-13T08:38:01.078Z,21.65
2022-12-13T08:40:27.760Z,21.10
2022-12-13T08:42:55.733Z,26.17
2022-12-13T08:45:24.057Z,14.95
2022-12-13T08:47:50.656Z,22.02
2022-12-13T08:50:17.394Z,20.05
2022-12-13T08:52:44.909Z,18.30
2022-12-13T08:55:13.152Z,21.40
2022-12-13T08:57:40.940Z,21.33
2022-12-13T09:00:11.391Z,22.48
2022-12-13T09:02:38.944Z,22.02
2022-12-13T09:05:07.435Z,24.90
2022-12-13T09:07:36.030Z,21.45
2022-12-13T09:10:25.425Z,25.23
2022-12-13T09:12:51.736Z,23.35
2022-12-13T09:15:22.261Z,18.25
2022-12-13T09:17:52.051Z,29.27
2022-12-13T09:20:28.578Z,27.17
2022-12-13T09:23:01.597Z,24.73
2022-12-13T09:25:37.437Z,24.70
2022-12-13T09:28:06.916Z,25.25
2022-12-13T09:30:34.020Z,25.52
2022-12-13T09:33:17.567Z,28.23
2022-12-13T09:35:47.220Z,24.27
2022-12-13T09:38:13.869Z,22.83
2022-12-13T09:40:44.611Z,22.40
2022-12-13T09:43:32.212Z,27.95
2022-12-13T09:46:05.010Z,27.73
2022-12-13T09:48:40.705Z,25.25
2022-12-13T09:51:18.309Z,28.85
2022-12-13T09:53:54.844Z,27.15
2022-12-13T09:56:25.243Z,31.95
2022-12-13T09:58:53.666Z,26.73
2022-12-13T10:01:22.297Z,26.15
2022-12-13T10:03:53.011Z,25.70
2022-12-13T10:06:28.475Z,27.90
2022-12-13T10:08:58.767Z,23.92
2022-12-13T10:11:32.341Z,26.30
2022-12-13T10:14:14.204Z,26.23
2022-12-13T10:16:46.585Z,26.57
2022-12-13T10:19:29.299Z,25.10
2022-12-13T10:22:01.732Z,29.40
2022-12-13T10:24:47.432Z,28.02
2022-12-13T10:27:17.869Z,25.20
2022-12-13T10:30:00.785Z,27.67
2022-12-13T10:32:28.099Z,25.65
2022-12-13T10:34:55.277Z,29.02
2022-12-13T10:37:24.591Z,28.88
2022-12-13T10:39:51.157Z,25.30
2022-12-13T10:42:22.702Z,31.33
2022-12-13T10:45:10.441Z,32.13
2022-12-13T10:47:37.197Z,27.23
2022-12-13T10:50:04.317Z,31.70
2022-12-13T10:52:47.393Z,31.25
2022-12-13T10:55:30.969Z,30.45
2022-12-13T10:58:00.796Z,29.35
2022-12-13T11:00:35.195Z,31.98
2022-12-13T11:03:02.175Z,28.73
2022-12-13T11:05:34.629Z,28.65
2022-12-13T11:08:23.768Z,29.92
2022-12-13T11:10:59.360Z,33.03
2022-12-13T11:13:38.608Z,26.77
2022-12-13T11:16:33.867Z,25.95
2022-12-13T11:19:05.613Z,32.50
2022-12-13T11:21:34.854Z,24.45
2022-12-13T11:24:05.477Z,29.38
2022-12-13T11:26:36.308Z,26.83
2022-12-13T11:29:21.754Z,28.20
2022-12-13T11:31:54.416Z,61.38
2022-12-13T11:34:44.861Z,47.90
2022-12-13T11:37:17.530Z,34.30
2022-12-13T11:40:01.820Z,29.27
2022-12-13T11:42:32.324Z,27.58
2022-12-13T11:45:22.428Z,29.42
2022-12-13T11:48:06.450Z,29.92
2022-12-13T11:50:39.933Z,26.95
2022-12-13T11:53:38.202Z,31.35
2022-12-13T11:56:19.472Z,24.27
2022-12-13T11:59:20.657Z,28.25
2022-12-13T12:02:18.770Z,27.17
2022-12-13T12:05:00.832Z,27.77
2022-12-13T12:07:36.118Z,26.08
2022-12-13T12:10:06.428Z,25.73
2022-12-13T12:12:35.485Z,28.33
2022-12-13T12:15:17.701Z,27.27
2022-12-13T12:17:53.914Z,28.40
2022-12-13T12:20:53.613Z,27.73
2022-12-13T12:23:40.017Z,28.25
2022-12-13T12:26:15.380Z,29.73
2022-12-13T12:29:15.486Z,26.08
2022-12-13T12:32:02.667Z,26.25
2022-12-13T12:34:52.384Z,26.42
2022-12-13T12:37:30.966Z,26.85
2022-12-13T12:40:09.534Z,29.50
2022-12-13T12:43:27.093Z,32.35
2022-12-13T12:46:01.904Z,27.85
2022-12-13T12:49:00.553Z,27.42
2022-12-13T12:51:45.869Z,26.05
2022-12-13T12:54:34.347Z,28.77
2022-12-13T12:57:43.394Z,26.10
2022-12-13T13:00:17.140Z,22.58
2022-12-13T13:02:43.755Z,23.48
2022-12-13T13:05:23.756Z,26.38
2022-12-13T13:08:04.571Z,23.73
2022-12-13T13:10:31.817Z,27.65
2022-12-13T13:13:32.896Z,26.92
2022-12-13T13:15:54.309Z,22.90
2022-12-13T13:18:45.487Z,22.25
2022-12-13T13:21:25.660Z,21.45
2022-12-13T13:24:03.867Z,21.83
2022-12-13T13:26:45.257Z,26.70
2022-12-13T13:29:28.484Z,23.80
2022-12-13T13:32:28.282Z,24.75
2022-12-13T13:35:28.859Z,21.92
2022-12-13T13:37:56.364Z,29.00
2022-12-13T13:40:37.184Z,27.33
2022-12-13T13:43:06.606Z,24.60
2022-12-13T13:45:51.768Z,26.02
2022-12-13T13:48:27.655Z,22.35
2022-12-13T13:51:20.288Z,27.33
2022-12-13T13:54:09.034Z,26.10
2022-12-13T13:56:50.140Z,22.45
2022-12-13T14:00:01.348Z,28.20
2022-12-13T14:02:51.202Z,22.55
2022-12-13T14:05:26.673Z,24.45
2022-12-13T14:07:59.107Z,26.75
2022-12-13T14:10:29.338Z,27.20
2022-12-13T14:13:51.937Z,24.00
2022-12-13T14:16:39.308Z,26.48
2022-12-13T14:19:45.870Z,29.27
2022-12-13T14:22:38.320Z,26.73
2022-12-13T14:28:02.380Z,22.00
2022-12-13T14:30:29.685Z,21.65
2022-12-13T14:32:57.487Z,21.98
2022-12-13T14:35:30.386Z,26.60
2022-12-13T14:38:04.093Z,25.08
2022-12-13T14:40:49.408Z,27.20
2022-12-13T14:43:28.451Z,28.75
2022-12-13T14:46:00.888Z,24.33
2022-12-13T14:48:32.472Z,26.80
2022-12-13T14:50:59.048Z,25.08
2022-12-13T14:53:37.309Z,30.70
2022-12-13T14:56:27.720Z,27.63
2022-12-13T14:59:03.901Z,25.80
2022-12-13T15:01:34.703Z,23.10
2022-12-13T15:04:26.876Z,29.85
2022-12-13T15:07:06.895Z,23.70
2022-12-13T15:09:41.456Z,26.38
2022-12-13T15:12:25.294Z,26.70
2022-12-13T15:15:28.929Z,31.20
2022-12-13T15:18:07.900Z,25.67
2022-12-13T15:20:39.782Z,23.95
2022-12-13T15:23:18.413Z,24.95
2022-12-13T15:25:46.523Z,30.30
2022-12-13T15:28:21.184Z,24.13
2022-12-13T15:30:48.730Z,25.20
2022-12-13T15:33:25.228Z,29.95
2022-12-13T15:36:13.809Z,29.63
2022-12-13T15:38:48.749Z,30.33
2022-12-13T15:41:20.277Z,27.65
2022-12-13T15:43:51.279Z,30.20
2022-12-13T15:46:30.646Z,33.53
2022-12-13T15:49:01.099Z,34.15
2022-12-13T15:51:30.784Z,34.10
2022-12-13T15:54:06.417Z,37.42
2022-12-13T15:56:41.688Z,36.05
2022-12-13T15:59:26.377Z,34.95
2022-12-13T16:01:58.012Z,40.58
2022-12-13T16:04:28.561Z,27.58
2022-12-13T16:06:56.044Z,32.33
2022-12-13T16:09:25.597Z,33.67
2022-12-13T16:12:01.232Z,32.58
2022-12-13T16:14:31.436Z,30.10
2022-12-13T16:17:26.673Z,29.63
2022-12-13T16:19:55.826Z,31.92
2022-12-13T16:22:23.918Z,29.40
2022-12-13T16:24:56.272Z,29.42
2022-12-13T16:27:23.169Z,34.05
2022-12-13T16:29:49.799Z,33.63
2022-12-13T16:32:19.304Z,32.00
2022-12-13T16:34:46.160Z,34.05
2022-12-13T16:37:25.485Z,31.75
2022-12-13T16:39:52.855Z,32.95
2022-12-13T16:42:19.617Z,27.83
2022-12-13T16:44:47.444Z,28.65
2022-12-13T16:47:22.150Z,27.88
2022-12-13T16:49:53.808Z,31.45
2022-12-13T16:52:21.817Z,31.90
2022-12-13T16:54:48.373Z,30.42
2022-12-13T16:57:14.961Z,32.90
2022-12-13T16:59:41.522Z,33.05
2022-12-13T17:02:17.124Z,37.03
2022-12-13T17:04:43.843Z,32.60
2022-12-13T17:07:10.439Z,35.38
2022-12-13T17:09:36.988Z,29.73
2022-12-13T17:12:03.721Z,30.80
2022-12-13T17:14:30.286Z,30.23
2022-12-13T17:16:58.794Z,33.05
2022-12-13T17:19:25.368Z,31.70
2022-12-13T17:21:52.049Z,32.40
2022-12-13T17:24:18.613Z,32.40
2022-12-13T17:26:53.914Z,33.08
2022-12-13T17:29:22.449Z,33.42
2022-12-13T17:31:49.025Z,34.17
2022-12-13T17:34:15.612Z,35.65
2022-12-13T17:36:43.456Z,31.13
2022-12-13T17:39:11.988Z,33.47
2022-12-13T17:41:38.985Z,39.10
2022-12-13T17:44:06.393Z,33.92
2022-12-13T17:46:34.572Z,33.33
2022-12-13T17:49:01.485Z,31.80
2022-12-13T17:51:28.108Z,28.48
2022-12-13T17:53:54.760Z,33.13
2022-12-13T17:56:21.974Z,32.30
2022-12-13T17:58:48.701Z,25.88
2022-12-13T18:01:25.624Z,32.17
2022-12-13T18:03:55.471Z,27.90
2022-12-13T18:06:23.466Z,78.13
2022-12-13T18:08:50.424Z,63.58
2022-12-13T18:11:34.890Z,61.97
2022-12-13T18:14:03.490Z,53.70
2022-12-13T18:16:36.871Z,42.60
2022-12-13T18:19:07.170Z,39.95
2022-12-13T18:21:35.264Z,37.45
2022-12-13T18:24:01.900Z,40.92
2022-12-13T18:26:28.608Z,34.50
2022-12-13T18:28:55.264Z,35.70
2022-12-13T18:31:24.384Z,40.58
2022-12-13T18:33:53.109Z,42.70
2022-12-13T18:36:22.040Z,40.22
2022-12-13T18:38:48.801Z,41.13
2022-12-13T18:41:18.143Z,40.97
2022-12-13T18:43:45.656Z,39.25
2022-12-13T18:46:14.306Z,39.58
2022-12-13T18:48:41.568Z,39.47
2022-12-13T18:51:09.776Z,43.42
2022-12-13T18:53:37.843Z,45.75
2022-12-13T18:56:16.088Z,37.10
2022-12-13T18:58:45.762Z,42.28
2022-12-13T19:01:13.066Z,42.78
2022-12-13T19:03:41.476Z,47.22
2022-12-13T19:06:08.116Z,48.25
2022-12-13T19:08:36.256Z,48.00
2022-12-13T19:11:03.447Z,40.95
2022-12-13T19:13:31.680Z,41.63
2022-12-13T19:16:05.128Z,43.17
2022-12-13T19:18:31.983Z,42.53
2022-12-13T19:20:58.764Z,44.75
2022-12-13T19:23:25.797Z,39.13
2022-12-13T19:25:52.708Z,38.92
2022-12-13T19:28:19.686Z,41.70
2022-12-13T19:30:47.516Z,39.92
2022-12-13T19:33:14.944Z,36.35
2022-12-13T19:35:45.309Z,38.10
2022-12-13T19:38:12.224Z,41.88
2022-12-13T19:40:40.184Z,38.47
2022-12-13T19:43:06.884Z,47.95
2022-12-13T19:45:33.829Z,36.70
2022-12-13T19:48:00.655Z,37.03
2022-12-13T19:50:28.333Z,34.22
2022-12-13T19:52:55.234Z,37.92
2022-12-13T19:55:21.852Z,33.47
2022-12-13T19:57:48.574Z,35.30
2022-12-13T20:00:15.716Z,38.15
2022-12-13T20:02:42.522Z,35.85
2022-12-13T20:05:09.601Z,37.35
2022-12-13T20:07:36.448Z,39.20
2022-12-13T20:10:04.138Z,42.95
2022-12-13T20:12:33.086Z,42.05
2022-12-13T20:15:05.455Z,38.35
2022-12-13T20:17:32.476Z,37.92
2022-12-13T20:19:59.520Z,36.17
2022-12-13T20:22:26.183Z,43.00
2022-12-13T20:24:52.905Z,43.58
2022-12-13T20:27:19.896Z,48.17
2022-12-13T20:29:49.008Z,38.88
2022-12-13T20:32:16.277Z,39.58
2022-12-13T20:34:42.837Z,35.28
2022-12-13T20:37:09.826Z,41.17
2022-12-13T20:39:36.809Z,36.35
2022-12-13T20:42:03.574Z,34.28
2022-12-13T20:44:30.253Z,33.50
2022-12-13T20:46:56.957Z,34.08
2022-12-13T20:49:23.872Z,31.50
2022-12-13T20:51:50.571Z,33.97
2022-12-13T20:54:17.343Z,32.55
2022-12-13T20:56:43.975Z,28.65
2022-12-13T20:59:15.169Z,27.27
2022-12-13T21:01:43.864Z,26.52
2022-12-13T21:04:15.591Z,25.17
2022-12-13T21:06:42.771Z,26.08
2022-12-13T21:09:10.441Z,29.00
2022-12-13T21:11:46.661Z,28.90
2022-12-13T21:14:22.399Z,25.00
2022-12-13T21:16:51.319Z,29.95
2022-12-13T21:19:21.449Z,24.80
2022-12-13T21:21:48.452Z,29.48
2022-12-13T21:24:16.976Z,27.15
2022-12-13T21:26:44.273Z,28.50
2022-12-13T21:29:12.929Z,27.13
2022-12-13T21:31:43.267Z,25.15
2022-12-13T21:34:11.386Z,30.65
2022-12-13T21:36:45.916Z,27.23
2022-12-13T21:39:22.675Z,25.88
2022-12-13T21:41:49.969Z,25.13
2022-12-13T21:44:17.628Z,26.02
2022-12-13T21:49:30.776Z,30.15
2022-12-13T21:51:57.452Z,28.02
2022-12-13T21:54:24.097Z,26.83
2022-12-13T21:57:09.264Z,24.10
2022-12-13T21:59:35.939Z,28.75
2022-12-13T22:02:24.459Z,26.27
2022-12-13T22:04:54.829Z,25.95
2022-12-13T22:07:25.817Z,27.92
2022-12-13T22:09:53.514Z,23.73
2022-12-13T22:12:33.545Z,23.20
2022-12-13T22:15:00.709Z,27.75
2022-12-13T22:17:35.307Z,26.98
2022-12-13T22:20:05.143Z,24.40
2022-12-13T22:22:31.852Z,20.73
2022-12-13T22:24:58.441Z,23.13
2022-12-13T22:27:25.718Z,21.73
2022-12-13T22:29:54.390Z,24.50
2022-12-13T22:32:21.244Z,26.02
2022-12-13T22:34:48.336Z,27.58
2022-12-13T22:37:14.939Z,23.45
2022-12-13T22:39:41.532Z,20.27
2022-12-13T22:42:08.209Z,25.15
2022-12-13T22:44:34.999Z,24.83
2022-12-13T22:47:01.609Z,22.02
2022-12-13T22:49:28.158Z,20.95
2022-12-13T22:51:54.839Z,22.55
2022-12-13T22:54:21.401Z,22.40
2022-12-13T22:56:51.304Z,26.35
2022-12-13T22:59:17.861Z,26.30
2022-12-13T23:01:47.525Z,24.98
2022-12-13T23:04:14.644Z,21.33
2022-12-13T23:06:41.596Z,27.33
2022-12-13T23:09:11.416Z,30.13
2022-12-13T23:11:56.573Z,24.48
2022-12-13T23:14:31.821Z,24.83
2022-12-13T23:16:59.504Z,21.15
2022-12-13T23:19:50.040Z,22.58
2022-12-13T23:22:13.692Z,21.55
2022-12-13T23:24:40.303Z,22.92
2022-12-13T23:27:06.907Z,23.10
2022-12-13T23:29:33.514Z,23.00
2022-12-13T23:32:00.168Z,29.13
2022-12-13T23:34:26.712Z,28.98
2022-12-13T23:36:53.260Z,26.58
2022-12-13T23:39:19.825Z,28.77
2022-12-13T23:41:46.412Z,28.65
2022-12-13T23:44:12.964Z,29.48
2022-12-13T23:46:39.661Z,29.23
2022-12-13T23:49:06.698Z,27.65
2022-12-13T23:51:34.457Z,28.17
2022-12-13T23:54:01.089Z,29.90
2022-12-13T23:56:27.661Z,26.15
2022-12-13T23:58:54.229Z,29.15
